Central Il Rgnl Arpt at Bloomington-Normal Airport
KBMI : rendu visible

Aérodrome :











RETROUVEZ-NOUS SUR...

 
LOGIN :

S'inscrire | Disclaimer

   EN    FR    IT 

 









Légende :    VFR   VFR Marginal   IFR   IFR Intensif   IFR Très Intensif
Visi : 
Plafond : 
>= 8 km
>= 3000ft
5 à 8 km
1000 à 3000 ft
1500m à 5 km
500 à 1000 ft
800 à 1500m
200 à 500 ft
< 800m
< 200 ft
Symboles :   Orages  Brouillard  Fortes neiges  Fortes précipitations  Vent > 20 kt






- Altitude de l'aérodrome : 871 ft
- Code IATA : BMI


KBMI - Central Il Rgnl Arpt at Bloomington-Normal

DERNIER METAR :
  • 162256Z 09007KT 7SM CLR 01/M01 A3023 RMK AO2 SLP245 T00111011

METARs EXPIRÉS :
  • 162156Z 10009KT 8SM CLR 04/M01 A3025 RMK AO2 SLP251 T00441006
  • 162056Z 10009KT 9SM CLR 06/M01 A3026 RMK AO2 SLP254 T00611006 56022

TAF KBMI
Valide du 17 à 00h jusqu'au 18 à 00h UTC


162320Z 1700/1724 11006KT P6SM SCT250
FM171500 17008KT P6SM VCSH OVC090
FM172000 19006KT 5SM -RA OVC040



MET'MAP, la Météo Aéronautique d'un coup d'oeil ! - Copyright ORBIFLY Décembre 2007 - Disclaimer

ORBIFLY MET'MAP TEAM :

Programmation & Développement : Alexandra Zaïnal
Conception & Développement : Baudouin d'Aumeries
Co-Programmation & Développement : Marc-Olivier Méhu
Soutien technique & logistique : Manuel Goepfert

Contact : metmap@orbifly.com




SOURCES & CREDITS :

   NOAA       Earth
Advisory